Stormwatcher's Retreat Logo




                  Temp     Hi    Low   Out    Dew  Wind  Wind   Wind    Hi    Hi   Wind   Heat    THW   THSW                Rain  Solar   Solar Hi Solar   UV    UV    Hi     Heat    Cool    In     In    In     In     In   In Air          Wind  Wind    ISS   Arc.
  Date    Time     Out   Temp   Temp   Hum    Pt. Speed   Dir    Run Speed   Dir  Chill  Index  Index  Index   Bar    Rain  Rate   Rad.  Energy    Rad.  Index  Dose   UV     D-D     D-D    Temp   Hum    Dew   Heat    EMC Density     ET   Samp   Tx   Recept  Int.
------------------------------------------------------------------------------------------------------------------------------------------------------------------------------------------------------------------------------------------------------------------------
 1/27/20 12:10a   51.7   51.8   51.7    66   40.7   6.0   SSW   1.00  10.0   SSW   49.7   51.0   49.0   45.9  30.205  0.00  0.00     0     0.00      0     0.0  0.00   0.0   0.092   0.000   69.1    52   50.7   67.8   9.67  .0748    0.000   209    5    100.0   10 
 1/27/20 12:20a   51.7   51.8   51.6    66   40.7   5.0   SSW   0.83  10.0    SE   50.2   51.0   49.5   46.4  30.205  0.00  0.00     0     0.00      0     0.0  0.00   0.0   0.092   0.000   69.0    52   50.6   67.8   9.67  .0748    0.000   213    5    100.0   10 
 1/27/20 12:30a   51.7   51.8   51.7    66   40.7   6.0   SSW   1.00  10.0   SSW   49.7   51.0   49.0   45.9  30.204  0.00  0.00     0     0.00      0     0.0  0.00   0.0   0.092   0.000   69.0    52   50.6   67.8   9.67  .0748    0.000   213    5    100.0   10 
 1/27/20 12:40a   51.7   51.7   51.7    66   40.7   5.0   SSW   0.83  10.0   WSW   50.2   51.0   49.5   46.4  30.202  0.00  0.00     0     0.00      0     0.0  0.00   0.0   0.092   0.000   69.0    52   50.6   67.8   9.67  .0748    0.000   210    5    100.0   10 
 1/27/20 12:50a   51.7   51.7   51.6    66   40.7   5.0   SSW   0.83  10.0     S   50.2   51.0   49.5   46.4  30.202  0.00  0.00     0     0.00      0     0.0  0.00   0.0   0.092   0.000   68.9    52   50.5   67.7   9.67  .0749    0.000   214    5    100.0   10 
 1/27/20  1:00a   51.7   51.7   51.6    66   40.7   5.0   SSW   0.83  10.0   SSE   50.2   51.0   49.5   46.4  30.199  0.00  0.00     0     0.00      0     0.0  0.00   0.0   0.092   0.000   68.9    52   50.5   67.7   9.67  .0749    0.002   212    5    100.0   10 
 1/27/20  1:10a   51.3   51.7   51.3    66   40.3   3.0   SSW   0.50   7.0   SSW   51.1   50.6   50.4   47.3  30.203  0.00  0.00     0     0.00      0     0.0  0.00   0.0   0.095   0.000   68.9    52   50.5   67.7   9.67  .0749    0.000   211    5    100.0   10 
 1/27/20  1:20a   50.6   51.3   50.6    66   39.7   2.0     S   0.33   6.0     S   50.6   50.0   50.0   46.9  30.204  0.00  0.00     0     0.00      0     0.0  0.00   0.0   0.100   0.000   68.8    52   50.5   67.6   9.67  .0749    0.000   212    5    100.0   10 
 1/27/20  1:30a   50.4   50.6   50.4    66   39.5   2.0     S   0.33   5.0   SSW   50.4   49.8   49.8   46.7  30.202  0.00  0.00     0     0.00      0     0.0  0.00   0.0   0.101   0.000   68.8    52   50.5   67.6   9.67  .0749    0.000   212    5    100.0   10 
 1/27/20  1:40a   50.4   50.4   50.2    66   39.5   1.0   SSW   0.17   5.0     S   50.4   49.8   49.8   46.7  30.204  0.00  0.00     0     0.00      0     0.0  0.00   0.0   0.101   0.000   68.8    52   50.5   67.6   9.67  .0749    0.000   211    5    100.0   10 
 1/27/20  1:50a   50.1   50.4   50.1    66   39.2   0.0   SSE   0.00   5.0     S   50.1   49.5   49.5   46.4  30.203  0.00  0.00     0     0.00      0     0.0  0.00   0.0   0.103   0.000   68.8    52   50.5   67.6   9.67  .0749    0.000   211    5    100.0   10 
 1/27/20  2:00a   49.6   50.1   49.6    66   38.7   2.0     S   0.33   5.0     S   49.6   49.0   49.0   45.9  30.205  0.00  0.00     0     0.00      0     0.0  0.00   0.0   0.107   0.000   68.7    52   50.4   67.5   9.68  .0749    0.001   212    5    100.0   10 
 1/27/20  2:10a   49.6   49.7   49.6    66   38.7   1.0   SSE   0.17   5.0   SSE   49.6   49.0   49.0   45.9  30.207  0.00  0.00     0     0.00      0     0.0  0.00   0.0   0.107   0.000   68.7    52   50.4   67.5   9.68  .0749    0.000   211    5    100.0   10 
 1/27/20  2:20a   49.5   49.6   49.5    66   38.6   1.0    SE   0.17   4.0    SE   49.5   48.9   48.9   45.8  30.212  0.00  0.00     0     0.00      0     0.0  0.00   0.0   0.108   0.000   68.7    52   50.4   67.5   9.68  .0749    0.000   212    5    100.0   10 
 1/27/20  2:30a   49.3   49.4   49.3    66   38.4   2.0     S   0.33   4.0   SSE   49.3   48.7   48.7   45.6  30.216  0.00  0.00     0     0.00      0     0.0  0.00   0.0   0.109   0.000   68.7    52   50.4   67.5   9.68  .0749    0.000   212    5    100.0   10 
 1/27/20  2:40a   49.3   49.3   49.2    66   38.4   1.0     S   0.17   3.0     S   49.3   48.7   48.7   45.6  30.216  0.00  0.00     0     0.00      0     0.0  0.00   0.0   0.109   0.000   68.6    52   50.3   67.4   9.68  .0749    0.000   214    5    100.0   10 
 1/27/20  2:50a   49.2   49.5   49.2    66   38.3   1.0   SSE   0.17   4.0   SSE   49.2   48.6   48.6   45.5  30.216  0.00  0.00     0     0.00      0     0.0  0.00   0.0   0.110   0.000   68.6    52   50.3   67.4   9.68  .0749    0.000   212    5    100.0   10 
 1/27/20  3:00a   49.0   49.2   48.9    66   38.1   2.0    SE   0.33   5.0   SSE   49.0   48.4   48.4   45.3  30.216  0.00  0.00     0     0.00      0     0.0  0.00   0.0   0.111   0.000   68.6    52   50.3   67.4   9.68  .0749    0.001   213    5    100.0   10 
 1/27/20  3:10a   48.8   49.0   48.8    66   37.9   1.0   SSE   0.17   4.0   SSE   48.8   48.2   48.2   45.0  30.215  0.00  0.00     0     0.00      0     0.0  0.00   0.0   0.113   0.000   68.5    52   50.2   67.3   9.68  .0750    0.000   213    5    100.0   10 
 1/27/20  3:20a   48.8   48.9   48.8    66   37.9   2.0     S   0.33   5.0   SSE   48.8   48.2   48.2   45.0  30.217  0.00  0.00     0     0.00      0     0.0  0.00   0.0   0.113   0.000   68.4    52   50.1   67.2   9.68  .0750    0.000   207    5    100.0   10 
 1/27/20  3:30a   48.6   48.8   48.6    66   37.7   2.0   SSE   0.33   5.0   SSE   48.6   48.0   48.0   44.8  30.212  0.00  0.00     0     0.00      0     0.0  0.00   0.0   0.114   0.000   68.4    52   50.1   67.2   9.68  .0750    0.000   213    5    100.0   10 
 1/27/20  3:40a   48.7   48.8   48.6    66   37.8   1.0    SE   0.17   4.0   ESE   48.7   48.1   48.1   44.9  30.211  0.00  0.00     0     0.00      0     0.0  0.00   0.0   0.113   0.000   68.4    52   50.1   67.2   9.68  .0750    0.000   214    5    100.0   10 
 1/27/20  3:50a   48.6   48.8   48.6    66   37.7   2.0   SSW   0.33   4.0   SSW   48.6   48.0   48.0   44.8  30.208  0.00  0.00     0     0.00      0     0.0  0.00   0.0   0.114   0.000   68.3    52   50.0   67.2   9.68  .0750    0.000   212    5    100.0   10 
 1/27/20  4:00a   48.6   48.7   48.6    66   37.7   2.0   SSE   0.33   4.0    SE   48.6   48.0   48.0   44.8  30.203  0.00  0.00     0     0.00      0     0.0  0.00   0.0   0.114   0.000   68.2    52   49.9   67.1   9.69  .0750    0.001   210    5    100.0   10 
 1/27/20  4:10a   48.5   48.7   48.5    66   37.7   2.0    SE   0.33   6.0   SSE   48.5   47.9   47.9   44.7  30.198  0.00  0.00     0     0.00      0     0.0  0.00   0.0   0.115   0.000   68.2    52   49.9   67.1   9.69  .0750    0.000   214    5    100.0   10 
 1/27/20  4:20a   48.1   48.5   48.1    66   37.3   2.0   SSW   0.33   9.0   ENE   48.1   47.4   47.4   44.2  30.195  0.00  0.00     0     0.00      0     0.0  0.00   0.0   0.117   0.000   68.2    52   49.9   67.1   9.69  .0750    0.000   212    5    100.0   10 
 1/27/20  4:30a   48.0   48.2   47.9    66   37.2   2.0    SE   0.33   5.0     S   48.0   47.3   47.3   44.1  30.200  0.00  0.00     0     0.00      0     0.0  0.00   0.0   0.118   0.000   68.1    52   49.8   67.0   9.69  .0750    0.000   212    5    100.0   10 
 1/27/20  4:40a   48.1   48.2   48.1    66   37.3   2.0     S   0.33   7.0   SSW   48.1   47.4   47.4   44.2  30.204  0.00  0.00     0     0.00      0     0.0  0.00   0.0   0.117   0.000   68.1    52   49.8   67.0   9.69  .0750    0.000   214    5    100.0   10 
 1/27/20  4:50a   48.3   48.3   48.1    66   37.5   2.0     S   0.33   9.0     S   48.3   47.7   47.7   44.5  30.198  0.00  0.00     0     0.00      0     0.0  0.00   0.0   0.116   0.000   68.1    52   49.8   67.0   9.69  .0750    0.000   213    5    100.0   10 
 1/27/20  5:00a   48.4   48.4   48.3    65   37.2   2.0     S   0.33   8.0   SSE   48.4   47.7   47.7   44.5  30.192  0.00  0.00     0     0.00      0     0.0  0.00   0.0   0.115   0.000   68.1    52   49.8   67.0   9.69  .0750    0.001   213    5    100.0   10 
 1/27/20  5:10a   48.6   48.6   48.4    65   37.4   2.0   SSE   0.33   7.0     S   48.6   48.0   48.0   44.8  30.186  0.00  0.00     0     0.00      0     0.0  0.00   0.0   0.114   0.000   68.0    52   49.7   66.9   9.69  .0750    0.000   212    5    100.0   10 
 1/27/20  5:20a   48.6   48.6   48.5    65   37.4   2.0    SE   0.33   5.0     S   48.6   48.0   48.0   44.8  30.191  0.00  0.00     0     0.00      0     0.0  0.00   0.0   0.114   0.000   68.0    52   49.7   66.9   9.69  .0750    0.000   209    5    100.0   10 
 1/27/20  5:30a   48.7   48.7   48.6    65   37.5   2.0     S   0.33   5.0     S   48.7   48.1   48.1   44.9  30.186  0.00  0.00     0     0.00      0     0.0  0.00   0.0   0.113   0.000   68.0    52   49.7   66.9   9.69  .0750    0.000   212    5    100.0   10 
 1/27/20  5:40a   48.7   48.8   48.7    65   37.5   2.0    SE   0.33   7.0   SSE   48.7   48.1   48.1   44.9  30.194  0.00  0.00     0     0.00      0     0.0  0.00   0.0   0.113   0.000   68.0    52   49.7   66.9   9.69  .0750    0.000   212    5    100.0   10 
 1/27/20  5:50a   49.0   49.0   48.7    65   37.7   2.0     S   0.33   7.0     S   49.0   48.4   48.4   45.2  30.190  0.00  0.00     0     0.00      0     0.0  0.00   0.0   0.111   0.000   67.9    52   49.6   66.8   9.69  .0750    0.000   213    5    100.0   10 
 1/27/20  6:00a   49.1   49.1   49.0    65   37.8   2.0     S   0.33   9.0     S   49.1   48.5   48.5   45.3  30.188  0.00  0.00     0     0.00      0     0.0  0.00   0.0   0.110   0.000   67.9    52   49.6   66.8   9.69  .0750    0.001   212    5    100.0   10 
 1/27/20  6:10a   49.0   49.1   49.0    64   37.3   2.0     S   0.33   6.0     E   49.0   48.4   48.4   45.2  30.186  0.00  0.00     0     0.00      0     0.0  0.00   0.0   0.111   0.000   67.8    52   49.5   66.7   9.69  .0750    0.000   212    5    100.0   10 
 1/27/20  6:20a   49.3   49.3   49.0    65   38.0   2.0   ENE   0.33   7.0    SE   49.3   48.7   48.7   45.6  30.188  0.00  0.00     0     0.00      0     0.0  0.00   0.0   0.109   0.000   67.8    52   49.5   66.7   9.69  .0750    0.000   212    5    100.0   10 
 1/27/20  6:30a   49.2   49.3   49.1    64   37.5   2.0     S   0.33   7.0   ESE   49.2   48.6   48.6   45.4  30.189  0.00  0.00     0     0.00      0     0.0  0.00   0.0   0.110   0.000   67.8    52   49.5   66.7   9.69  .0750    0.000   209    5    100.0   10 
 1/27/20  6:40a   49.6   49.6   49.2    64   37.9   2.0   ESE   0.33   5.0   SSE   49.6   49.0   49.0   45.8  30.185  0.00  0.00     0     0.00      0     0.0  0.00   0.0   0.107   0.000   67.9    52   49.6   66.8   9.69  .0750    0.000   213    5    100.0   10 
 1/27/20  6:50a   49.9   49.9   49.6    64   38.2   3.0     S   0.50   9.0   SSW   49.6   49.3   49.0   45.9  30.188  0.00  0.00     0     0.00      0     0.0  0.00   0.0   0.105   0.000   68.0    53   50.2   67.0   9.89  .0750    0.000   213    5    100.0   10 
 1/27/20  7:00a   50.1   50.2   49.9    64   38.4   2.0     S   0.33   6.0   SSE   50.1   49.5   49.5   46.4  30.176  0.00  0.00     0     0.00      0     0.0  0.00   0.0   0.103   0.000   68.1    53   50.3   67.1   9.89  .0749    0.001   213    5    100.0   10 
 1/27/20  7:10a   49.5   50.1   49.5    64   37.8   3.0    SE   0.50   9.0   SSE   49.1   48.9   48.5   45.3  30.169  0.00  0.00     0     0.00      0     0.0  0.00   0.0   0.108   0.000   68.3    53   50.5   67.3   9.88  .0749    0.000   212    5    100.0   10 
 1/27/20  7:20a   49.4   49.5   49.3    64   37.7   3.0    SE   0.50   7.0   ESE   49.0   48.8   48.4   45.2  30.167  0.00  0.00     0     0.00      0     0.0  0.00   0.0   0.108   0.000   68.5    53   50.7   67.4   9.88  .0748    0.000   211    5    100.0   10 
 1/27/20  7:30a   49.6   49.6   49.4    64   37.9   3.0    SE   0.50   6.0   ESE   49.2   49.0   48.6   45.4  30.169  0.00  0.00     0     0.00      0     0.0  0.00   0.0   0.107   0.000   68.8    53   51.0   67.7   9.87  .0748    0.000   209    5    100.0   10 
 1/27/20  7:40a   49.7   49.7   49.6    64   38.0   3.0     S   0.50   7.0     S   49.3   49.1   48.7   45.6  30.168  0.00  0.00     0     0.00      0     0.0  0.00   0.0   0.106   0.000   69.1    53   51.2   67.9   9.87  .0747    0.000   214    5    100.0   10 
 1/27/20  7:50a   50.5   50.5   49.7    64   38.8   5.0   SSW   0.83  13.0   SSW   48.8   49.8   48.1   45.0  30.168  0.00  0.00     0     0.00      0     0.0  0.00   0.0   0.101   0.000   69.3    53   51.4   68.1   9.86  .0747    0.000   211    5    100.0   10 
 1/27/20  8:00a   51.7   51.8   50.6    64   39.9   7.0     S   1.17  21.0   SSW   49.2   50.9   48.4   45.4  30.167  0.00  0.00     3     0.04      5     0.0  0.00   0.0   0.092   0.000   69.6    53   51.7   68.3   9.86  .0746    0.001   211    5    100.0   10 
 1/27/20  8:10a   51.4   51.8   51.4    63   39.2   5.0     S   0.83  13.0   SSW   49.9   50.6   49.1   46.1  30.170  0.00  0.00     6     0.09      9     0.0  0.00   0.0   0.094   0.000   69.7    53   51.8   68.3   9.86  .0746    0.000   214    5    100.0   10 
 1/27/20  8:20a   51.4   51.4   51.3    63   39.2   4.0     S   0.67  13.0     S   50.5   50.6   49.7   46.9  30.168  0.00  0.00    11     0.16     12     0.0  0.00   0.0   0.094   0.000   69.8    53   51.9   68.4   9.85  .0746    0.000   211    5    100.0   10 
 1/27/20  8:30a   51.4   51.5   51.4    62   38.8   4.0   SSW   0.67  10.0     S   50.5   50.5   49.6   46.9  30.153  0.00  0.00    19     0.27     25     0.0  0.00   0.0   0.094   0.000   69.9    53   52.0   68.5   9.85  .0745    0.000   212    5    100.0   10 
 1/27/20  8:40a   51.4   51.5   51.4    62   38.8   3.0   SSW   0.50  11.0   SSW   51.2   50.5   50.3   47.8  30.152  0.00  0.00    28     0.40     30     0.0  0.00   0.0   0.094   0.000   69.9    53   52.0   68.5   9.85  .0745    0.000   213    5    100.0   10 
 1/27/20  8:50a   51.4   51.4   51.4    62   38.8   3.0     S   0.50  10.0     E   51.2   50.5   50.3   47.8  30.147  0.00  0.00    26     0.37     26     0.0  0.00   0.0   0.094   0.000   69.9    53   52.0   68.5   9.85  .0745    0.000   212    5    100.0   10 
 1/27/20  9:00a   51.2   51.4   51.2    62   38.6   3.0     S   0.50   7.0   ESE   51.0   50.4   50.2   49.4  30.145  0.01  0.00    31     0.44     47     0.0  0.00   0.0   0.096   0.000   70.0    53   52.1   68.5   9.85  .0745    0.002   212    5    100.0   10 
 1/27/20  9:10a   51.1   51.2   51.0    63   38.9   3.0    SE   0.50  10.0   ESE   50.9   50.3   50.1   51.2  30.139  0.00  0.00    78     1.12     95     4.0  0.29   5.0   0.097   0.000   70.0    53   52.1   68.5   9.85  .0745    0.000   212    5    100.0   10 
 1/27/20  9:20a   51.2   51.2   51.1    63   39.0   4.0    SE   0.67  11.0   ESE   50.2   50.4   49.4   51.3  30.133  0.00  0.00    97     1.39    109     5.0  0.36   5.0   0.096   0.000   70.2    53   52.3   68.8   9.84  .0744    0.000   211    5    100.0   10 
 1/27/20  9:30a   51.4   51.4   51.1    63   39.2   5.0     S   0.83  12.0   SSE   49.9   50.6   49.1   50.8  30.137  0.00  0.00    93     1.33    109     5.0  0.36   5.0   0.094   0.000   70.3    53   52.4   68.9   9.84  .0744    0.000   211    5    100.0   10 
 1/27/20  9:40a   52.2   52.2   51.4    63   40.0   6.0   SSW   1.00  13.0   SSW   50.2   51.3   49.3   49.7  30.135  0.00  0.00    60     0.86     69     4.5  0.32   5.0   0.089   0.000   70.3    53   52.4   68.9   9.84  .0744    0.000   212    5    100.0   10 
 1/27/20  9:50a   52.8   52.9   52.2    62   40.1   7.0   SSW   1.17  16.0   SSE   50.6   51.8   49.6   48.5  30.131  0.00  0.00    27     0.39     35     0.0  0.00   0.0   0.085   0.000   70.3    52   51.8   68.9   9.64  .0744    0.000   213    5    100.0   10 
 1/27/20 10:00a   53.1   53.2   52.8    62   40.4   5.0     S   0.83  14.0     S   51.8   52.1   50.8   50.0  30.134  0.00  0.00    34     0.49     47     0.0  0.00   0.0   0.083   0.000   70.4    52   51.9   69.0   9.64  .0744    0.003   212    5    100.0   10 
 1/27/20 10:10a   53.5   53.5   53.1    61   40.4   7.0   SSW   1.17  21.0   SSW   51.4   52.4   50.3   50.8  30.128  0.00  0.00    65     0.93     74     3.5  0.25   5.0   0.080   0.000   70.4    52   51.9   69.0   9.64  .0744    0.000   211    5    100.0   10 
 1/27/20 10:20a   54.2   54.2   53.5    61   41.0  10.0   SSW   1.67  18.0   SSW   50.2   53.0   49.0   50.7  30.127  0.00  0.00   100     1.43    123     4.9  0.35   4.9   0.075   0.000   70.5    52   52.0   69.1   9.64  .0744    0.000   212    5    100.0   10 
 1/27/20 10:30a   54.7   54.7   54.2    60   41.1  10.0   SSW   1.67  21.0   SSE   50.8   53.4   49.5   51.8  30.119  0.00  0.00   121     1.73    128     4.9  0.35   4.9   0.072   0.000   70.5    52   52.0   69.1   9.64  .0744    0.000   213    5    100.0   10 
 1/27/20 10:40a   55.0   55.0   54.8    60   41.4  11.0   SSW   1.83  22.0     S   50.6   53.7   49.3   50.2  30.116  0.00  0.00    82     1.18     98     4.9  0.35   4.9   0.069   0.000   70.5    52   52.0   69.1   9.64  .0744    0.000   214    5    100.0   10 
 1/27/20 10:50a   55.3   55.3   54.9    59   41.2  12.0   SSW   2.00  24.0   SSW   50.4   54.0   49.1   49.8  30.116  0.00  0.00    74     1.06     77     4.9  0.35   4.9   0.067   0.000   70.5    52   52.0   69.1   9.64  .0744    0.000   212    5    100.0   10 
 1/27/20 11:00a   55.1   55.3   55.1    60   41.5  11.0   SSW   1.83  24.0     S   50.7   53.8   49.4   49.7  30.116  0.00  0.00    67     0.96     74     4.9  0.35   4.9   0.069   0.000   70.4    52   51.9   69.0   9.64  .0744    0.005   212    5    100.0   10 
 1/27/20 11:10a   55.1   55.3   55.1    61   41.9  15.0   SSW   2.50  30.0   SSW   49.0   53.9   47.8   48.0  30.114  0.00  0.00    64     0.92     74     4.9  0.35   4.9   0.069   0.000   70.3    52   51.8   68.9   9.64  .0744    0.000   211    5    100.0   10 
 1/27/20 11:20a   54.9   55.2   54.9    61   41.7  15.0   SSW   2.50  32.0   SSW   48.8   53.7   47.6   47.3  30.116  0.00  0.00    48     0.69     67     1.5  0.11   4.9   0.070   0.000   70.2    52   51.7   68.7   9.65  .0744    0.000   213    5    100.0   10 
 1/27/20 11:30a   54.6   54.9   54.5    62   41.8  15.0   SSW   2.50  29.0    SW   48.4   53.4   47.2   47.3  30.117  0.01  0.00    63     0.90     79     3.7  0.26   4.9   0.072   0.000   70.1    52   51.7   68.6   9.65  .0744    0.000   211    5    100.0   10 
 1/27/20 11:40a   54.4   54.5   54.4    63   42.1  16.0   SSW   2.67  27.0   SSE   47.9   53.3   46.8   47.2  30.108  0.00  0.00    70     1.00     98     2.9  0.21   4.9   0.074   0.000   70.0    52   51.6   68.5   9.65  .0744    0.000   210    5    100.0   10 
 1/27/20 11:50a   54.3   54.4   54.3    63   42.0  18.0   SSW   3.00  32.0   SSE   47.2   53.2   46.1   46.0  30.107  0.00  0.00    57     0.82     95     2.5  0.18   4.9   0.074   0.000   69.9    52   51.5   68.4   9.65  .0744    0.000   211    5    100.0   10 
 1/27/20 12:00p   54.2   54.3   54.1    64   42.3  20.0   SSW   3.33  38.0   SSE   46.6   53.2   45.6   45.7  30.109  0.01  0.00    60     0.86     79     1.6  0.11   4.9   0.075   0.000   69.9    52   51.5   68.4   9.65  .0745    0.006   214    5    100.0   10 
 1/27/20 12:10p   54.1   54.3   54.0    65   42.6  20.0   SSW   3.33  34.0   SSW   46.5   53.1   45.5   45.6  30.104  0.01  0.05    60     0.86     70     3.7  0.26   4.9   0.076   0.000   69.9    52   51.5   68.4   9.65  .0744    0.000   212    5    100.0   10 
 1/27/20 12:20p   54.4   54.4   54.1    65   42.9  21.0   SSW   3.50  34.0   SSE   46.6   53.4   45.6   45.3  30.101  0.01  0.05    48     0.69     60     1.6  0.11   4.9   0.074   0.000   69.8    52   51.4   68.3   9.65  .0744    0.000   212    5    100.0   10 
 1/27/20 12:30p   54.4   54.4   54.4    65   42.9  21.0   SSW   3.50  38.0   SSW   46.6   53.4   45.6   45.2  30.090  0.01  0.05    44     0.63     54     0.0  0.00   0.0   0.074   0.000   69.7    52   51.3   68.3   9.66  .0744    0.000   214    5    100.0   10 
 1/27/20 12:40p   54.6   54.6   54.4    65   43.1  21.0   SSW   3.50  36.0   SSW   46.9   53.6   45.9   45.8  30.093  0.00  0.05    53     0.76     58     0.5  0.04   4.9   0.072   0.000   69.6    52   51.2   68.2   9.66  .0745    0.000   210    5    100.0   10 
 1/27/20 12:50p   54.5   54.6   54.5    65   43.0  21.0   SSW   3.50  42.0   SSE   46.8   53.5   45.8   45.7  30.084  0.00  0.00    52     0.75     56     0.0  0.00   0.0   0.073   0.000   69.7    52   51.3   68.3   9.66  .0744    0.000   213    5    100.0   10 
 1/27/20  1:00p   54.5   54.5   54.4    65   43.0  21.0   SSW   3.50  33.0   WSW   46.8   53.5   45.8   45.7  30.077  0.01  0.00    55     0.79     63     1.4  0.10   4.9   0.073   0.000   69.7    52   51.3   68.3   9.66  .0744    0.006   214    5    100.0   10 
 1/27/20  1:10p   54.6   54.6   54.5    65   43.1  23.0   SSW   3.83  40.0   SSW   46.5   53.6   45.5   45.6  30.072  0.01  0.00    61     0.87     77     2.8  0.20   4.9   0.072   0.000   69.8    53   51.9   68.4   9.85  .0744    0.000   208    5    100.0   10 
 1/27/20  1:20p   54.5   54.6   54.5    65   43.0  24.0   SSW   4.00  40.0   SSW   46.2   53.5   45.2   45.0  30.080  0.00  0.00    50     0.72     72     1.5  0.11   4.9   0.073   0.000   69.8    52   51.4   68.3   9.65  .0744    0.000   212    5    100.0   10 
 1/27/20  1:30p   54.4   54.5   54.4    65   42.9  23.0   SSW   3.83  36.0     S   46.2   53.4   45.2   45.1  30.066  0.01  0.00    54     0.77     62     1.6  0.11   4.9   0.074   0.000   69.8    52   51.4   68.3   9.65  .0744    0.000   211    5    100.0   10 
 1/27/20  1:40p   54.3   54.4   54.3    65   42.8  24.0   SSW   4.00  35.0   SSW   45.9   53.3   44.9   44.8  30.071  0.00  0.00    52     0.75     65     1.6  0.11   4.9   0.074   0.000   69.8    52   51.4   68.3   9.65  .0744    0.000   211    5    100.0   10 
 1/27/20  1:50p   54.2   54.3   54.2    65   42.7  23.0   SSW   3.83  38.0   SSE   46.0   53.2   45.0   44.6  30.068  0.01  0.00    40     0.57     44     0.0  0.00   0.0   0.075   0.000   69.7    52   51.3   68.3   9.66  .0744    0.000   211    5    100.0   10 
 1/27/20  2:00p   54.1   54.2   54.1    65   42.6  23.0   SSW   3.83  41.0   SSE   45.9   53.1   44.9   44.5  30.049  0.00  0.00    39     0.56     47     0.0  0.00   0.0   0.076   0.000   69.7    52   51.3   68.3   9.66  .0743    0.007   212    5    100.0   10 
 1/27/20  2:10p   54.1   54.2   54.1    65   42.6  24.0   SSW   4.00  45.0    SW   45.7   53.1   44.7   44.1  30.053  0.02  0.07    29     0.42     32     0.0  0.00   0.0   0.076   0.000   69.6    52   51.2   68.2   9.66  .0744    0.000   209    5    100.0   10 
 1/27/20  2:20p   53.9   54.1   53.9    65   42.4  22.0   SSW   3.67  38.0   SSE   45.9   52.9   44.9   44.6  30.053  0.01  0.07    40     0.57     47     0.0  0.00   0.0   0.077   0.000   69.6    52   51.2   68.2   9.66  .0744    0.000   211    5    100.0   10 
 1/27/20  2:30p   54.1   54.1   53.8    65   42.6  22.0   SSW   3.67  45.0    SW   46.1   53.1   45.1   44.9  30.045  0.01  0.08    42     0.60     54     0.0  0.00   0.0   0.076   0.000   69.5    52   51.1   68.1   9.66  .0744    0.000   214    5    100.0   10 
 1/27/20  2:40p   54.1   54.2   54.0    65   42.6  22.0   SSW   3.67  37.0   SSE   46.1   53.1   45.1   44.8  30.044  0.01  0.08    37     0.53     44     0.0  0.00   0.0   0.076   0.000   69.5    52   51.1   68.1   9.66  .0744    0.000   211    5    100.0   10 
 1/27/20  2:50p   54.2   54.2   54.1    66   43.1  24.0   SSW   4.00  41.0   SSW   45.8   53.3   44.9   44.2  30.041  0.00  0.05    23     0.33     33     0.0  0.00   0.0   0.075   0.000   69.5    52   51.1   68.1   9.66  .0744    0.000   211    5    100.0   10 
 1/27/20  3:00p   54.2   54.2   54.1    66   43.1  23.0   SSW   3.83  41.0    SW   46.0   53.3   45.1   44.3  30.032  0.02  0.13    18     0.26     26     0.0  0.00   0.0   0.075   0.000   69.4    52   51.0   68.0   9.66  .0743    0.006   213    5    100.0   10 
 1/27/20  3:10p   54.4   54.4   54.2    66   43.3  23.0   SSW   3.83  40.0     S   46.2   53.5   45.3   44.7  30.025  0.01  0.13    25     0.36     33     0.0  0.00   0.0   0.074   0.000   69.5    52   51.1   68.1   9.66  .0743    0.000   209    5    100.0   10 
 1/27/20  3:20p   54.6   54.6   54.4    66   43.5  24.0   SSW   4.00  42.0   SSW   46.3   53.6   45.3   44.4  30.026  0.02  0.07    15     0.22     18     0.0  0.00   0.0   0.072   0.000   69.6    53   51.7   68.3   9.86  .0743    0.000   213    5    100.0   10 
 1/27/20  3:30p   54.5   54.6   54.5    66   43.4  25.0   SSW   4.17  41.0   SSW   46.0   53.6   45.1   43.8  30.036  0.00  0.05    19     0.27     23     0.0  0.00   0.0   0.073   0.000   69.6    53   51.7   68.3   9.86  .0743    0.000   213    5    100.0   10 
 1/27/20  3:40p   54.6   54.6   54.5    66   43.5  26.0   SSW   4.33  48.0    SW   45.9   53.6   44.9   43.6  30.032  0.00  0.00    17     0.24     23     0.0  0.00   0.0   0.072   0.000   69.6    53   51.7   68.3   9.86  .0743    0.000   212    5    100.0   10 
 1/27/20  3:50p   54.4   54.6   54.4    66   43.3  26.0   SSW   4.33  45.0   SSE   45.7   53.5   44.8   43.4  30.030  0.00  0.00    11     0.16     14     0.0  0.00   0.0   0.074   0.000   69.6    53   51.7   68.3   9.86  .0743    0.000   211    5    100.0   10 
 1/27/20  4:00p   54.3   54.4   54.3    66   43.2  26.0   SSW   4.33  44.0   SSW   45.6   53.4   44.7   43.2  30.027  0.01  0.00     7     0.10      7     0.0  0.00   0.0   0.074   0.000   69.6    53   51.7   68.3   9.86  .0743    0.006   212    5    100.0   10 
 1/27/20  4:10p   54.2   54.4   54.2    66   43.1  26.0   SSW   4.33  43.0   SSW   45.4   53.3   44.5   43.0  30.024  0.02  0.10     7     0.10      7     0.0  0.00   0.0   0.075   0.000   69.6    53   51.7   68.3   9.86  .0743    0.000   212    5    100.0   10 
 1/27/20  4:20p   54.1   54.2   54.1    66   43.0  25.0   SSW   4.17  41.0   SSW   45.5   53.2   44.6   43.1  30.020  0.02  0.14     4     0.06      7     0.0  0.00   0.0   0.076   0.000   69.6    53   51.7   68.3   9.86  .0743    0.000   210    5    100.0   10 
 1/27/20  4:30p   54.3   54.3   54.1    66   43.2  24.0   SSW   4.00  44.0   SSE   45.9   53.4   45.0   43.4  30.015  0.02  0.14     0     0.00      0     0.0  0.00   0.0   0.074   0.000   69.5    53   51.6   68.2   9.86  .0743    0.000   213    5    100.0   10 
 1/27/20  4:40p   54.3   54.4   54.2    66   43.2  26.0   SSW   4.33  42.0     S   45.6   53.4   44.7   43.2  30.010  0.01  0.13     3     0.04      5     0.0  0.00   0.0   0.074   0.000   69.5    53   51.6   68.2   9.86  .0743    0.000   213    5    100.0   10 
 1/27/20  4:50p   54.4   54.4   54.3    66   43.3  26.0   SSW   4.33  46.0     S   45.7   53.5   44.8   43.3  30.013  0.01  0.07     4     0.06      5     0.0  0.00   0.0   0.074   0.000   69.5    53   51.6   68.2   9.86  .0743    0.000   212    5    100.0   10 
 1/27/20  5:00p   54.6   54.7   54.4    66   43.5  25.0   SSW   4.17  40.0     S   46.1   53.6   45.1   43.6  30.012  0.01  0.06     1     0.01      5     0.0  0.00   0.0   0.072   0.000   69.5    53   51.6   68.2   9.86  .0743    0.006   214    5    100.0   10 
 1/27/20  5:10p   54.6   54.7   54.6    66   43.5  25.0   SSW   4.17  56.0    SW   46.1   53.6   45.1   43.6  30.000  0.00  0.04     0     0.00      0     0.0  0.00   0.0   0.072   0.000   69.4    53   51.5   68.1   9.86  .0742    0.000   213    5    100.0   10 
 1/27/20  5:20p   54.6   54.6   54.6    66   43.5  26.0   SSW   4.33  56.0    SW   45.9   53.6   44.9   43.4  30.004  0.00  0.00     0     0.00      0     0.0  0.00   0.0   0.072   0.000   69.4    53   51.5   68.1   9.86  .0743    0.000   211    5    100.0   10 
 1/27/20  5:30p   54.4   54.6   54.4    66   43.3  26.0   SSW   4.33  40.0     S   45.7   53.5   44.8   43.3  30.003  0.00  0.00     0     0.00      0     0.0  0.00   0.0   0.074   0.000   69.4    53   51.5   68.1   9.86  .0743    0.000   213    5    100.0   10 
 1/27/20  5:40p   54.4   54.4   54.2    66   43.3  26.0   SSW   4.33  46.0     S   45.7   53.5   44.8   43.3  30.002  0.01  0.00     0     0.00      0     0.0  0.00   0.0   0.074   0.000   69.4    53   51.5   68.1   9.86  .0743    0.000   212    5    100.0   10 
 1/27/20  5:50p   54.4   54.5   54.4    66   43.3  25.0   SSW   4.17  41.0   SSW   45.8   53.5   44.9   43.4  29.996  0.00  0.00     0     0.00      0     0.0  0.00   0.0   0.074   0.000   69.3    53   51.4   68.1   9.86  .0743    0.000   212    5    100.0   10 
 1/27/20  6:00p   54.5   54.6   54.4    66   43.4  26.0   SSW   4.33  42.0    SW   45.8   53.6   44.9   43.4  29.994  0.00  0.00     0     0.00      0     0.0  0.00   0.0   0.073   0.000   69.3    53   51.4   68.1   9.86  .0742    0.006   212    5    100.0   10 
 1/27/20  6:10p   54.7   54.7   54.5    66   43.6  26.0   SSW   4.33  47.0   SSW   46.0   53.7   45.0   43.5  29.998  0.00  0.00     0     0.00      0     0.0  0.00   0.0   0.072   0.000   69.3    53   51.4   68.1   9.86  .0743    0.000   212    5    100.0   10 
 1/27/20  6:20p   54.7   54.7   54.7    65   43.2  27.0   SSW   4.50  46.0   SSE   45.9   53.7   44.9   43.4  29.997  0.00  0.00     0     0.00      0     0.0  0.00   0.0   0.072   0.000   69.3    53   51.4   68.1   9.86  .0743    0.000   211    5    100.0   10 
 1/27/20  6:30p   54.8   54.8   54.7    65   43.3  26.0   SSW   4.33  42.0   SSE   46.2   53.8   45.2   43.7  29.991  0.01  0.00     0     0.00      0     0.0  0.00   0.0   0.071   0.000   69.3    53   51.4   68.1   9.86  .0742    0.000   214    5    100.0   10 
 1/27/20  6:40p   54.8   54.9   54.8    65   43.3  24.0   SSW   4.00  39.0     S   46.5   53.8   45.5   43.9  29.995  0.00  0.00     0     0.00      0     0.0  0.00   0.0   0.071   0.000   69.3    53   51.4   68.1   9.86  .0743    0.000   213    5    100.0   10 
 1/27/20  6:50p   54.8   54.9   54.8    65   43.3  26.0   SSW   4.33  42.0   SSW   46.2   53.8   45.2   43.7  29.986  0.00  0.00     0     0.00      0     0.0  0.00   0.0   0.071   0.000   69.3    53   51.4   68.1   9.86  .0742    0.000   211    5    100.0   10 
 1/27/20  7:00p   54.8   54.8   54.7    65   43.3  26.0   SSW   4.33  48.0   WSW   46.2   53.8   45.2   43.7  29.980  0.00  0.00     0     0.00      0     0.0  0.00   0.0   0.071   0.000   69.3    53   51.4   68.1   9.86  .0742    0.006   213    5    100.0   10 
 1/27/20  7:10p   54.6   54.8   54.6    65   43.1  26.0   SSW   4.33  44.0     S   45.9   53.6   44.9   43.4  29.987  0.00  0.00     0     0.00      0     0.0  0.00   0.0   0.072   0.000   69.2    53   51.3   68.0   9.87  .0742    0.000   213    5    100.0   10 
 1/27/20  7:20p   54.9   54.9   54.6    65   43.4  25.0   SSW   4.17  41.0     S   46.4   53.9   45.4   43.9  29.986  0.00  0.00     0     0.00      0     0.0  0.00   0.0   0.070   0.000   69.3    53   51.4   68.1   9.86  .0742    0.000   213    5    100.0   10 
 1/27/20  7:30p   54.9   54.9   54.8    64   42.9  27.0   SSW   4.50  47.0   SSE   46.1   53.8   45.0   43.5  29.992  0.00  0.00     0     0.00      0     0.0  0.00   0.0   0.070   0.000   69.4    54   52.0   68.2   9.97  .0742    0.000   212    5    100.0   10 
 1/27/20  7:40p   54.8   55.0   54.8    64   42.9  24.0   SSW   4.00  39.0   SSW   46.5   53.7   45.4   43.8  29.989  0.00  0.00     0     0.00      0     0.0  0.00   0.0   0.071   0.000   69.5    54   52.1   68.3   9.97  .0742    0.000   212    5    100.0   10 
 1/27/20  7:50p   54.6   54.9   54.6    64   42.7  26.0   SSW   4.33  40.0     S   45.9   53.5   44.8   43.2  29.980  0.00  0.00     0     0.00      0     0.0  0.00   0.0   0.072   0.000   69.7    54   52.3   68.4   9.96  .0741    0.000   212    5    100.0   10 
 1/27/20  8:00p   54.4   54.6   54.4    65   42.9  24.0   SSW   4.00  41.0   SSW   46.0   53.4   45.0   43.4  29.982  0.01  0.00     0     0.00      0     0.0  0.00   0.0   0.074   0.000   69.8    54   52.4   68.5   9.96  .0741    0.006   211    5    100.0   10 
 1/27/20  8:10p   54.1   54.4   54.1    65   42.6  24.0   SSW   4.00  39.0     S   45.7   53.1   44.7   42.7  29.992  0.00  0.00     0     0.00      0     0.0  0.00   0.0   0.076   0.000   69.9    53   52.0   68.5   9.85  .0741    0.000   212    5    100.0   10 
 1/27/20  8:20p   54.2   54.2   54.0    66   43.1  24.0   SSW   4.00  43.0   SSE   45.8   53.3   44.9   42.9  29.984  0.00  0.00     0     0.00      0     0.0  0.00   0.0   0.075   0.000   69.9    54   52.5   68.5   9.95  .0741    0.000   214    5    100.0   10 
 1/27/20  8:30p   54.4   54.5   54.1    66   43.3  26.0   SSW   4.33  45.0     S   45.7   53.5   44.8   42.9  29.978  0.01  0.00     0     0.00      0     0.0  0.00   0.0   0.074   0.000   69.9    53   52.0   68.5   9.85  .0741    0.000   212    5    100.0   10 
 1/27/20  8:40p   54.5   54.6   54.4    65   43.0  29.0   SSW   4.83  62.0    SW   45.3   53.5   44.3   42.5  29.989  0.01  0.08     0     0.00      0     0.0  0.00   0.0   0.073   0.000   69.9    53   52.0   68.5   9.85  .0741    0.000   211    5    100.0   10 
 1/27/20  8:50p   54.2   54.6   54.2    65   42.7  25.0   SSW   4.17  38.0     S   45.6   53.2   44.6   42.7  29.996  0.02  0.11     0     0.00      0     0.0  0.00   0.0   0.075   0.000   69.8    53   51.9   68.4   9.85  .0742    0.000   213    5    100.0   10 
 1/27/20  9:00p   54.0   54.2   53.9    66   42.9  24.0   SSW   4.00  36.0     S   45.6   53.1   44.7   42.7  30.007  0.03  0.20     0     0.00      0     0.0  0.00   0.0   0.076   0.000   69.7    53   51.8   68.3   9.86  .0742    0.006   213    5    100.0   10 
 1/27/20  9:10p   53.6   54.0   53.6    66   42.5  25.0   SSW   4.17  34.0    SW   44.9   52.7   44.0   42.1  30.015  0.03  0.27     0     0.00      0     0.0  0.00   0.0   0.079   0.000   69.7    53   51.8   68.3   9.86  .0742    0.000   211    5    100.0   10 
 1/27/20  9:20p   53.6   53.6   53.6    67   42.9  24.0   SSW   4.00  35.0    SW   45.1   52.7   44.2   42.2  30.014  0.01  0.24     0     0.00      0     0.0  0.00   0.0   0.079   0.000   69.5    53   51.6   68.2   9.86  .0743    0.000   213    5    100.0   10 
 1/27/20  9:30p   53.0   53.9   53.0    67   42.3  26.0   SSW   4.33  44.0     S   44.1   52.2   43.3   41.4  29.999  0.00  0.04     0     0.00      0     0.0  0.00   0.0   0.083   0.000   69.4    53   51.5   68.1   9.86  .0742    0.000   211    5    100.0   10 
 1/27/20  9:40p   53.9   53.9   52.7    64   42.0  21.0   SSW   3.50  38.0     S   46.1   52.9   45.1   42.9  29.977  0.00  0.00     0     0.00      0     0.0  0.00   0.0   0.077   0.000   69.3    53   51.4   68.1   9.86  .0742    0.000   212    5    100.0   10 
 1/27/20  9:50p   53.1   53.9   53.0    63   40.8  12.0   SSW   2.00  22.0     S   47.8   52.1   46.8   43.9  29.964  0.00  0.00     0     0.00      0     0.0  0.00   0.0   0.083   0.000   69.2    53   51.3   68.0   9.87  .0742    0.000   211    5    100.0   10 
 1/27/20 10:00p   54.1   54.1   53.1    62   41.4  16.0   SSW   2.67  32.0   SSW   47.5   53.0   46.4   43.9  29.968  0.00  0.00     0     0.00      0     0.0  0.00   0.0   0.076   0.000   69.1    53   51.2   67.9   9.87  .0742    0.005   212    5    100.0   10 
 1/27/20 10:10p   54.4   54.5   54.1    63   42.1  21.0   SSW   3.50  35.0     S   46.6   53.3   45.5   43.4  29.988  0.00  0.00     0     0.00      0     0.0  0.00   0.0   0.074   0.000   69.1    53   51.2   67.9   9.87  .0743    0.000   211    5    100.0   10 
 1/27/20 10:20p   54.5   54.5   54.4    64   42.6  23.0   SSW   3.83  34.0    SW   46.3   53.4   45.2   43.2  29.990  0.00  0.00     0     0.00      0     0.0  0.00   0.0   0.073   0.000   69.0    53   51.2   67.8   9.87  .0743    0.000   212    5    100.0   10 
 1/27/20 10:30p   54.3   54.5   54.3    65   42.8  21.0   SSW   3.50  33.0    SW   46.5   53.3   45.5   43.4  29.988  0.00  0.00     0     0.00      0     0.0  0.00   0.0   0.074   0.000   68.9    53   51.1   67.8   9.87  .0743    0.000   211    5    100.0   10 
 1/27/20 10:40p   54.1   54.3   54.1    65   42.6  23.0   SSW   3.83  35.0    SW   45.9   53.1   44.9   42.9  29.988  0.01  0.00     0     0.00      0     0.0  0.00   0.0   0.076   0.000   68.8    53   51.0   67.7   9.87  .0743    0.000   213    5    100.0   10 
 1/27/20 10:50p   54.2   54.2   53.9    65   42.7  20.0   SSW   3.33  31.0     S   46.6   53.2   45.6   43.4  29.984  0.00  0.00     0     0.00      0     0.0  0.00   0.0   0.075   0.000   68.8    53   51.0   67.7   9.87  .0743    0.000   212    5    100.0   10 
 1/27/20 11:00p   54.7   54.8   54.3    65   43.2  19.0   SSW   3.17  33.0   SSW   47.4   53.7   46.4   44.1  29.969  0.00  0.00     0     0.00      0     0.0  0.00   0.0   0.072   0.000   68.7    53   50.9   67.6   9.88  .0743    0.005   210    5    100.0   10 
 1/27/20 11:10p   54.4   54.9   54.4    64   42.5  20.0   SSW   3.33  35.0   SSE   46.8   53.4   45.8   43.6  29.962  0.02  0.22     0     0.00      0     0.0  0.00   0.0   0.074   0.000   68.6    53   50.8   67.5   9.88  .0743    0.000   213    5    100.0   10 
 1/27/20 11:20p   54.0   54.4   53.9    65   42.5  19.0   SSW   3.17  35.0   SSW   46.6   53.0   45.6   43.3  29.961  0.01  0.22     0     0.00      0     0.0  0.00   0.0   0.076   0.000   68.6    53   50.8   67.5   9.88  .0743    0.000   212    5    100.0   10 
 1/27/20 11:30p   55.1   55.1   54.0    64   43.1  22.0   SSW   3.67  42.0   SSE   47.2   54.0   46.1   44.0  29.957  0.00  0.04     0     0.00      0     0.0  0.00   0.0   0.069   0.000   68.5    53   50.7   67.4   9.88  .0743    0.000   213    5    100.0   10 
 1/27/20 11:40p   55.1   55.4   55.1    62   42.3  24.0   SSW   4.00  39.0   SSW   46.8   53.9   45.6   43.6  29.961  0.00  0.00     0     0.00      0     0.0  0.00   0.0   0.069   0.000   68.4    53   50.6   67.3   9.88  .0743    0.000   211    5    100.0   10 
 1/27/20 11:50p   54.5   55.1   54.5    63   42.2  25.0   SSW   4.17  40.0   SSE   46.0   53.4   44.9   43.0  29.967  0.00  0.00     0     0.00      0     0.0  0.00   0.0   0.073   0.000   68.4    53   50.6   67.3   9.88  .0743    0.000   213    5    100.0   10 
 1/28/20 12:00a   53.9   54.5   53.9    64   42.0  27.0   SSW   4.50  40.0   SSE   45.0   52.9   44.0   42.1  29.964  0.00  0.00     0     0.00      0     0.0  0.00   0.0   0.077   0.000   68.3    53   50.5   67.3   9.88  .0743    0.005   207    5    100.0   10 
 1/28/20 12:10a   53.6   53.9   53.6    66   42.5  28.0   SSW   4.67  46.0   SSE   44.5   52.7   43.6   41.8  29.982  0.03  0.54     0     0.00      0     0.0  0.00   0.0   0.079   0.000   68.2    53   50.4   67.2   9.89  .0744    0.000   212    5    100.0   10 
 1/28/20 12:20a   53.7   53.7   53.5    66   42.6  25.0   SSW   4.17  45.0   SSE   45.0   52.8   44.1   42.2  29.976  0.00  0.04     0     0.00      0     0.0  0.00   0.0   0.078   0.000   68.2    53   50.4   67.2   9.89  .0744    0.000   208    5    100.0   10 
 1/28/20 12:30a   53.6   53.8   53.6    66   42.5  25.0   SSW   4.17  34.0   SSW   44.9   52.7   44.0   42.1  29.978  0.00  0.00     0     0.00      0     0.0  0.00   0.0   0.079   0.000   68.2    53   50.4   67.2   9.89  .0744    0.000   211    5    100.0   10 
 1/28/20 12:40a   53.3   53.6   53.0    66   42.2  22.0   SSW   3.67  36.0     S   45.2   52.4   44.3   42.2  29.981  0.00  0.00     0     0.00      0     0.0  0.00   0.0   0.081   0.000   68.2    53   50.4   67.2   9.89  .0744    0.000   210    5    100.0   10 
 1/28/20 12:50a   53.7   53.7   53.3    66   42.6  19.0   SSW   3.17  31.0   SSE   46.3   52.8   45.4   43.1  29.977  0.00  0.00     0     0.00      0     0.0  0.00   0.0   0.078   0.000   68.2    53   50.4   67.2   9.89  .0744    0.000   212    5    100.0   10 
 1/28/20  1:00a   53.9   53.9   53.7    66   42.8  18.0   SSW   3.00  32.0   SSE   46.8   53.0   45.9   43.6  29.965  0.00  0.00     0     0.00      0     0.0  0.00   0.0   0.077   0.000   68.2    53   50.4   67.2   9.89  .0744    0.005   213    5    100.0   10 
 1/28/20  1:10a   54.1   54.1   53.9    66   43.0  17.0   SSW   2.83  31.0    SW   47.2   53.2   46.3   43.9  29.963  0.00  0.00     0     0.00      0     0.0  0.00   0.0   0.076   0.000   68.2    53   50.4   67.2   9.89  .0744    0.000   206    5     99.5   10 
 1/28/20  1:20a   54.0   54.1   54.0    66   42.9  18.0   SSW   3.00  29.0   SSW   46.9   53.1   46.0   43.7  29.966  0.00  0.00     0     0.00      0     0.0  0.00   0.0   0.076   0.000   68.1    53   50.3   67.1   9.89  .0744    0.000   213    5    100.0   10 
 1/28/20  1:30a   53.8   54.1   53.8    66   42.7  17.0   SSW   2.83  28.0    SW   46.9   52.9   46.0   43.6  29.965  0.00  0.00     0     0.00      0     0.0  0.00   0.0   0.078   0.000   68.1    53   50.3   67.1   9.89  .0744    0.000   211    5    100.0   10 
 1/28/20  1:40a   54.0   54.0   53.8    65   42.5  18.0   SSW   3.00  28.0    SW   46.9   53.0   45.9   43.6  29.964  0.00  0.00     0     0.00      0     0.0  0.00   0.0   0.076   0.000   68.0    54   50.7   67.1  10.03  .0744    0.000   213    5    100.0   10 
 1/28/20  1:50a   53.9   54.0   53.9    65   42.4  19.0   SSW   3.17  29.0   SSW   46.5   52.9   45.5   43.2  29.965  0.00  0.00     0     0.00      0     0.0  0.00   0.0   0.077   0.000   68.0    54   50.7   67.1  10.03  .0744    0.000   213    5    100.0   10 
 1/28/20  2:00a   53.9   53.9   53.9    65   42.4  18.0   SSW   3.00  26.0   SSW   46.8   52.9   45.8   43.5  29.969  0.00  0.00     0     0.00      0     0.0  0.00   0.0   0.077   0.000   67.9    54   50.6   67.0  10.03  .0744    0.004   212    5    100.0   10 
 1/28/20  2:10a   53.7   53.9   53.7    66   42.6  17.0   SSW   2.83  32.0     S   46.8   52.8   45.9   43.5  29.970  0.00  0.00     0     0.00      0     0.0  0.00   0.0   0.078   0.000   67.8    54   50.5   66.9  10.04  .0744    0.000   214    5    100.0   10 
 1/28/20  2:20a   53.7   53.8   53.7    66   42.6  17.0   SSW   2.83  26.0    SW   46.8   52.8   45.9   43.5  29.976  0.00  0.00     0     0.00      0     0.0  0.00   0.0   0.078   0.000   67.8    54   50.5   66.9  10.04  .0744    0.000   211    5    100.0   10 
 1/28/20  2:30a   53.6   53.7   53.6    66   42.5  18.0   SSW   3.00  28.0    SW   46.4   52.7   45.5   43.2  29.976  0.00  0.00     0     0.00      0     0.0  0.00   0.0   0.079   0.000   67.8    54   50.5   66.9  10.04  .0744    0.000   210    5    100.0   10 
 1/28/20  2:40a   53.7   53.7   53.6    65   42.2  19.0   SSW   3.17  31.0    SW   46.3   52.7   45.3   43.0  29.969  0.00  0.00     0     0.00      0     0.0  0.00   0.0   0.078   0.000   67.8    54   50.5   66.9  10.04  .0744    0.000   212    5    100.0   10 
 1/28/20  2:50a   53.9   53.9   53.7    65   42.4  18.0   SSW   3.00  31.0   SSW   46.8   52.9   45.8   43.5  29.955  0.00  0.00     0     0.00      0     0.0  0.00   0.0   0.077   0.000   67.8    54   50.5   66.9  10.04  .0744    0.000   212    5    100.0   10 
 1/28/20  3:00a   53.9   54.0   53.9    65   42.4  21.0   SSW   3.50  34.0   SSW   46.1   52.9   45.1   43.0  29.953  0.01  0.00     0     0.00      0     0.0  0.00   0.0   0.077   0.000   67.9    54   50.6   67.0  10.03  .0744    0.004   213    5    100.0   10 
 1/28/20  3:10a   51.7   53.9   51.7    63   39.5  22.0   SSW   3.67  34.0     S   43.3   50.8   42.4   40.2  29.967  0.01  0.28     0     0.00      0     0.0  0.00   0.0   0.092   0.000   67.9    54   50.6   67.0  10.03  .0744    0.000   214    5    100.0   10 
 1/28/20  3:20a   52.4   52.9   51.6    64   40.6  18.0   SSW   3.00  26.0    SW   45.0   51.5   44.1   41.7  29.950  0.00  0.00     0     0.00      0     0.0  0.00   0.0   0.087   0.000   67.8    54   50.5   66.9  10.04  .0744    0.000   213    5    100.0   10 
 1/28/20  3:30a   53.9   53.9   52.2    64   42.0  21.0   SSW   3.50  36.0   SSE   46.1   52.9   45.1   42.9  29.930  0.00  0.00     0     0.00      0     0.0  0.00   0.0   0.077   0.000   67.7    54   50.5   66.8  10.04  .0743    0.000   213    5    100.0   10 
 1/28/20  3:40a   54.0   54.0   53.9    64   42.1  22.0   SSW   3.67  36.0     S   46.0   53.0   45.0   42.9  29.925  0.00  0.00     0     0.00      0     0.0  0.00   0.0   0.076   0.000   67.7    54   50.5   66.8  10.04  .0743    0.000   211    5    100.0   10 
 1/28/20  3:50a   53.9   54.0   53.9    64   42.0  21.0   SSW   3.50  31.0   SSE   46.1   52.9   45.1   42.9  29.918  0.00  0.00     0     0.00      0     0.0  0.00   0.0   0.077   0.000   67.6    54   50.4   66.7  10.05  .0743    0.000   209    5    100.0   10 
 1/28/20  4:00a   51.1   53.9   51.1    64   39.3  29.0   SSW   4.83  45.0   SSW   41.4   50.3   40.6   38.7  29.955  0.03  0.51     0     0.00      0     0.0  0.00   0.0   0.097   0.000   67.5    54   50.3   66.6  10.05  .0744    0.005   212    5    100.0   10 
 1/28/20  4:10a   50.7   51.1   50.7    65   39.4  26.0   SSW   4.33  38.0    SW   41.4   50.0   40.7   38.7  29.969  0.01  0.13     0     0.00      0     0.0  0.00   0.0   0.099   0.000   67.6    54   50.4   66.7  10.05  .0745    0.000   211    5    100.0   10 
 1/28/20  4:20a   50.5   50.7   50.4    65   39.2  25.0   SSW   4.17  34.0     S   41.4   49.8   40.7   38.6  29.973  0.01  0.06     0     0.00      0     0.0  0.00   0.0   0.101   0.000   67.6    54   50.4   66.7  10.05  .0745    0.000   213    5    100.0   10 
 1/28/20  4:30a   50.4   50.6   50.1    65   39.1  20.0   SSW   3.33  30.0    SW   42.3   49.8   41.7   39.4  29.963  0.01  0.08     0     0.00      0     0.0  0.00   0.0   0.101   0.000   67.6    54   50.4   66.7  10.05  .0744    0.000   212    5    100.0   10 
 1/28/20  4:40a   50.6   50.7   50.2    66   39.7  17.0   SSW   2.83  25.0   SSW   43.3   50.0   42.7   40.2  29.966  0.00  0.04     0     0.00      0     0.0  0.00   0.0   0.100   0.000   67.6    54   50.4   66.7  10.05  .0745    0.000   211    5    100.0   10 
 1/28/20  4:50a   50.8   50.8   50.6    66   39.8  17.0   SSW   2.83  25.0    SW   43.5   50.2   42.9   40.4  29.965  0.00  0.00     0     0.00      0     0.0  0.00   0.0   0.099   0.000   67.6    54   50.4   66.7  10.05  .0745    0.000   213    5    100.0   10 
 1/28/20  5:00a   51.3   51.3   50.8    65   39.9  17.0   SSW   2.83  26.0    SW   44.1   50.6   43.4   40.9  29.963  0.00  0.00     0     0.00      0     0.0  0.00   0.0   0.095   0.000   67.7    54   50.5   66.8  10.04  .0744    0.004   212    5    100.0   10 
 1/28/20  5:10a   50.6   51.3   50.6    65   39.3  13.0   SSW   2.17  24.0     S   44.6   49.9   43.9   41.0  29.958  0.00  0.00     0     0.00      0     0.0  0.00   0.0   0.100   0.000   67.9    54   50.6   67.0  10.03  .0744    0.000   214    5    100.0   10 
 1/28/20  5:20a   51.5   51.5   50.6    65   40.1  14.0   SSW   2.33  22.0   SSW   45.3   50.8   44.6   41.9  29.959  0.00  0.00     0     0.00      0     0.0  0.00   0.0   0.094   0.000   68.1    53   50.3   67.1   9.89  .0744    0.000   212    5    100.0   10 
 1/28/20  5:30a   52.1   52.1   51.5    64   40.3  14.0   SSW   2.33  21.0   SSW   45.9   51.3   45.1   42.4  29.960  0.00  0.00     0     0.00      0     0.0  0.00   0.0   0.090   0.000   68.2    53   50.4   67.2   9.89  .0744    0.000   212    5    100.0   10 
 1/28/20  5:40a   52.7   52.7   52.1    64   40.9  19.0   SSW   3.17  29.0   SSE   45.1   51.8   44.2   41.9  29.956  0.00  0.00     0     0.00      0     0.0  0.00   0.0   0.085   0.000   68.2    53   50.4   67.2   9.89  .0743    0.000   214    5    100.0   10 
 1/28/20  5:50a   53.0   53.0   52.7    64   41.1  19.0   SSW   3.17  29.0   SSE   45.5   52.1   44.6   42.3  29.957  0.00  0.00     0     0.00      0     0.0  0.00   0.0   0.083   0.000   68.3    53   50.5   67.3   9.88  .0743    0.000   209    5    100.0   10 
 1/28/20  6:00a   53.3   53.3   53.0    63   41.0  22.0   SSW   3.67  30.0    SW   45.2   52.3   44.2   42.0  29.958  0.00  0.00     0     0.00      0     0.0  0.00   0.0   0.081   0.000   68.4    53   50.6   67.3   9.88  .0743    0.004   212    5    100.0   10 
 1/28/20  6:10a   53.1   53.3   53.1    63   40.8  22.0   SSW   3.67  33.0   SSW   44.9   52.1   43.9   41.7  29.961  0.00  0.00     0     0.00      0     0.0  0.00   0.0   0.083   0.000   68.5    53   50.7   67.4   9.88  .0743    0.000   211    5    100.0   10 
 1/28/20  6:20a   53.1   53.1   52.9    64   41.2  21.0   SSW   3.50  31.0    SW   45.1   52.1   44.1   41.9  29.958  0.00  0.00     0     0.00      0     0.0  0.00   0.0   0.083   0.000   68.5    53   50.7   67.4   9.88  .0743    0.000   213    5    100.0   10 
 1/28/20  6:30a   52.6   53.1   52.5    64   40.8  22.0   SSW   3.67  32.0     S   44.4   51.7   43.5   41.3  29.963  0.00  0.00     0     0.00      0     0.0  0.00   0.0   0.086   0.000   68.5    53   50.7   67.4   9.88  .0743    0.000   210    5    100.0   10 
 1/28/20  6:40a   51.7   52.6   51.3    64   39.9  23.0   SSW   3.83  40.0   SSE   43.1   50.9   42.3   40.1  29.974  0.01  0.00     0     0.00      0     0.0  0.00   0.0   0.092   0.000   68.6    53   50.8   67.5   9.88  .0743    0.000   209    5    100.0   10 
 1/28/20  6:50a   52.5   52.6   51.8    64   40.7  22.0   SSW   3.67  31.0     S   44.3   51.6   43.4   41.2  29.985  0.00  0.00     0     0.00      0     0.0  0.00   0.0   0.087   0.000   68.6    53   50.8   67.5   9.88  .0743    0.000   211    5    100.0   10 
 1/28/20  7:00a   52.6   52.6   52.5    64   40.8  19.0   SSW   3.17  28.0   WSW   45.0   51.7   44.1   41.8  29.998  0.00  0.00     0     0.00      0     0.0  0.00   0.0   0.086   0.000   68.6    53   50.8   67.5   9.88  .0744    0.005   212    5    100.0   10 
 1/28/20  7:10a   52.6   52.6   52.5    64   40.8  20.0   SSW   3.33  29.0    SW   44.8   51.7   43.9   41.6  30.001  0.00  0.00     0     0.00      0     0.0  0.00   0.0   0.086   0.000   68.7    53   50.9   67.6   9.88  .0744    0.000   211    5    100.0   10 
 1/28/20  7:20a   52.7   52.7   52.6    64   40.9  20.0   SSW   3.33  28.0     S   44.9   51.8   44.0   41.7  29.993  0.00  0.00     0     0.00      0     0.0  0.00   0.0   0.085   0.000   68.7    53   50.9   67.6   9.88  .0744    0.000   211    5    100.0   10 
 1/28/20  7:30a   52.6   52.7   52.6    63   40.4  21.0   SSW   3.50  33.0    SW   44.6   51.7   43.7   41.5  29.998  0.00  0.00     0     0.00      0     0.0  0.00   0.0   0.086   0.000   68.8    53   51.0   67.7   9.87  .0743    0.000   211    5    100.0   10 
 1/28/20  7:40a   52.4   52.6   52.4    64   40.6  22.0   SSW   3.67  34.0   SSW   44.1   51.5   43.2   41.0  30.002  0.01  0.00     0     0.00      0     0.0  0.00   0.0   0.087   0.000   68.8    53   51.0   67.7   9.87  .0744    0.000   213    5    100.0   10 
 1/28/20  7:50a   52.4   52.4   52.3    64   40.6  23.0   SSW   3.83  34.0    SW   43.9   51.5   43.0   40.9  30.013  0.00  0.00     0     0.00      5     0.0  0.00   0.0   0.087   0.000   68.9    53   51.1   67.8   9.87  .0744    0.000   211    5    100.0   10 
 1/28/20  8:00a   52.4   52.5   52.4    64   40.6  20.0   SSW   3.33  29.0     S   44.5   51.5   43.6   41.4  30.011  0.00  0.00     5     0.07      9     0.0  0.00   0.0   0.087   0.000   68.9    53   51.1   67.8   9.87  .0744    0.005   212    5    100.0   10 
 1/28/20  8:10a   52.0   52.4   52.0    64   40.2  21.0   SSW   3.50  34.0    SW   43.9   51.2   43.1   40.9  30.013  0.00  0.00     2     0.03      7     0.0  0.00   0.0   0.090   0.000   68.9    53   51.1   67.8   9.87  .0744    0.000   212    5    100.0   10 
 1/28/20  8:20a   51.7   52.0   51.7    65   40.3  20.0   SSW   3.33  27.0   SSE   43.8   50.9   43.0   40.7  30.018  0.01  0.00     1     0.01      5     0.0  0.00   0.0   0.092   0.000   69.0    53   51.2   67.8   9.87  .0744    0.000   213    5    100.0   10 
 1/28/20  8:30a   51.8   51.8   51.5    65   40.4  21.0   SSW   3.50  31.0     S   43.7   51.0   42.9   40.8  30.033  0.00  0.00    10     0.14     11     0.0  0.00   0.0   0.092   0.000   69.0    53   51.2   67.8   9.87  .0744    0.000   213    5    100.0   10 
 1/28/20  8:40a   52.2   52.2   51.8    64   40.4  18.0   SSW   3.00  25.0   SSE   44.8   51.3   43.9   41.6  30.033  0.00  0.00    12     0.17     14     0.0  0.00   0.0   0.089   0.000   69.0    53   51.2   67.8   9.87  .0744    0.000   212    5    100.0   10 
 1/28/20  8:50a   52.5   52.5   52.2    63   40.3  17.0   SSW   2.83  24.0    SW   45.5   51.6   44.6   42.4  30.034  0.00  0.00    17     0.24     23     0.0  0.00   0.0   0.087   0.000   68.9    53   51.1   67.8   9.87  .0744    0.000   211    5    100.0   10 
 1/28/20  9:00a   52.6   52.6   52.4    63   40.4  19.0   SSW   3.17  26.0   SSE   45.0   51.7   44.1   43.3  30.042  0.00  0.00    23     0.33     26     0.0  0.00   0.0   0.086   0.000   68.9    53   51.1   67.8   9.87  .0744    0.005   209    5    100.0   10 
 1/28/20  9:10a   52.6   52.6   52.5    63   40.4  19.0   SSW   3.17  28.0   SSE   45.0   51.7   44.1   43.2  30.044  0.00  0.00    21     0.30     25     0.0  0.00   0.0   0.086   0.000   68.9    53   51.1   67.8   9.87  .0744    0.000   214    5    100.0   10 
 1/28/20  9:20a   52.6   52.6   52.6    63   40.4  19.0   SSW   3.17  26.0   SSW   45.0   51.7   44.1   43.2  30.048  0.00  0.00    20     0.29     25     0.0  0.00   0.0   0.086   0.000   68.9    53   51.1   67.8   9.87  .0745    0.000   211    5    100.0   10 
 1/28/20  9:30a   52.3   52.6   52.3    64   40.5  20.0   SSW   3.33  33.0   SSE   44.4   51.4   43.5   42.5  30.050  0.00  0.00    18     0.26     28     0.0  0.00   0.0   0.088   0.000   69.0    53   51.2   67.8   9.87  .0744    0.000   211    5    100.0   10 
 1/28/20  9:40a   52.0   52.3   52.0    65   40.6  22.0   SSW   3.67  28.0    SW   43.7   51.2   42.9   42.5  30.057  0.01  0.00    37     0.53     44     0.0  0.00   0.0   0.090   0.000   69.0    53   51.2   67.8   9.87  .0745    0.000   214    5    100.0   10 
 1/28/20  9:50a   51.6   51.9   51.6    65   40.2  24.0   SSW   4.00  34.0   SSW   42.8   50.8   42.0   41.7  30.059  0.00  0.00    40     0.57     46     0.0  0.00   0.0   0.093   0.000   69.1    53   51.2   67.9   9.87  .0744    0.000   213    5    100.0   10 
 1/28/20 10:00a   51.6   51.7   51.6    65   40.2  23.0   SSW   3.83  33.0   SSW   43.0   50.8   42.2   42.0  30.061  0.00  0.00    43     0.62     60     0.0  0.00   0.0   0.093   0.000   69.1    53   51.2   67.9   9.87  .0745    0.006   211    5    100.0   10 
 1/28/20 10:10a   51.6   51.7   51.5    66   40.6  23.0   SSW   3.83  32.0     S   43.0   50.9   42.3   42.3  30.062  0.00  0.00    54     0.77     60     2.8  0.20   5.0   0.093   0.000   69.1    53   51.2   67.9   9.87  .0745    0.000   213    5    100.0   10 
 1/28/20 10:20a   51.6   51.6   51.5    66   40.6  23.0   SSW   3.83  35.0     S   43.0   50.9   42.3   42.2  30.069  0.01  0.00    50     0.72     58     1.0  0.07   5.0   0.093   0.000   69.0    53   51.2   67.8   9.87  .0745    0.000   212    5    100.0   10 
 1/28/20 10:30a   51.5   51.6   51.5    67   40.9  24.0   SSW   4.00  36.0    SW   42.7   50.8   42.0   41.7  30.076  0.00  0.00    45     0.65     51     0.0  0.00   0.0   0.094   0.000   69.0    53   51.2   67.8   9.87  .0745    0.000   209    5    100.0   10 
 1/28/20 10:40a   51.3   51.6   51.3    67   40.7  20.0   SSW   3.33  30.0   SSW   43.3   50.7   42.7   41.9  30.095  0.08  1.39    29     0.42     44     0.0  0.00   0.0   0.095   0.000   69.0    53   51.2   67.8   9.87  .0746    0.000   213    5    100.0   10 
 1/28/20 10:50a   51.0   51.3   50.6    67   40.4  17.0    SW   2.83  26.0    SW   43.7   50.4   43.1   43.1  30.099  0.01  0.49    58     0.83    109     2.0  0.14   5.0   0.097   0.000   69.0    53   51.2   67.8   9.87  .0746    0.000   211    5    100.0   10 
 1/28/20 11:00a   51.6   51.7   51.0    67   41.0  17.0   SSW   2.83  25.0    SW   44.4   50.9   43.7   45.5  30.102  0.00  0.04   123     1.76    134     5.0  0.36   5.0   0.093   0.000   69.1    53   51.2   67.9   9.87  .0746    0.006   212    5    100.0   10 
 1/28/20 11:10a   51.3   51.6   51.3    67   40.7  18.0   SSW   3.00  29.0   SSE   43.8   50.7   43.2   44.4  30.107  0.00  0.00   101     1.45    114     5.0  0.36   5.0   0.095   0.000   69.3    53   51.4   68.1   9.86  .0745    0.000   212    5    100.0   10 
 1/28/20 11:20a   51.3   51.4   51.3    67   40.7  17.0   SSW   2.83  23.0   SSW   44.1   50.7   43.5   46.0  30.115  0.00  0.00   158     2.26    193     5.0  0.36   5.0   0.095   0.000   69.4    53   51.5   68.1   9.86  .0745    0.000   212    5    100.0   10 
 1/28/20 11:30a   51.3   51.4   51.1    67   40.7  16.0   SSW   2.67  26.0   WSW   44.4   50.7   43.8   45.5  30.115  0.00  0.00   119     1.71    128     5.0  0.36   5.0   0.095   0.000   69.5    53   51.6   68.2   9.86  .0745    0.000   211    5    100.0   10 
 1/28/20 11:40a   51.6   51.6   51.2    67   41.0  16.0    SW   2.67  27.0   WSW   44.7   50.9   44.0   46.2  30.123  0.00  0.00   142     2.04    158     5.0  0.36   5.0   0.093   0.000   69.5    53   51.6   68.2   9.86  .0745    0.000   212    5    100.0   10 
 1/28/20 11:50a   51.9   51.9   51.6    66   40.9  14.0    SW   2.33  22.0   SSE   45.7   51.2   45.0   48.5  30.122  0.00  0.00   191     2.74    207     5.0  0.36   5.0   0.091   0.000   69.6    53   51.7   68.3   9.86  .0745    0.000   210    5    100.0   10 
 1/28/20 12:00p   52.3   52.3   51.9    65   40.9  13.0    SW   2.17  23.0    SW   46.5   51.5   45.7   48.8  30.121  0.00  0.00   170     2.44    183     5.0  0.36   5.0   0.088   0.000   69.6    53   51.7   68.3   9.86  .0745    0.006   214    5    100.0   10 
 1/28/20 12:10p   52.3   52.4   52.1    64   40.5  16.0   WSW   2.67  26.0    SW   45.5   51.4   44.6   46.4  30.124  0.00  0.00   128     1.83    135     5.0  0.36   5.0   0.088   0.000   69.5    53   51.6   68.2   9.86  .0745    0.000   212    5    100.0   10 
 1/28/20 12:20p   52.4   52.4   52.2    63   40.2  19.0   WSW   3.17  27.0   WSW   44.8   51.5   43.9   46.4  30.128  0.00  0.00   165     2.37    183     5.0  0.36   5.0   0.087   0.000   69.5    53   51.6   68.2   9.86  .0746    0.000   213    5    100.0   10 
 1/28/20 12:30p   52.3   52.6   52.3    63   40.1  18.0   WSW   3.00  24.0    SW   44.9   51.4   44.0   47.1  30.122  0.00  0.00   191     2.74    216     5.0  0.36   5.0   0.088   0.000   69.5    52   51.1   68.1   9.66  .0746    0.000   214    5    100.0   10 
 1/28/20 12:40p   52.3   52.5   52.2    62   39.7  19.0    SW   3.17  27.0   WSW   44.7   51.4   43.8   48.1  30.128  0.00  0.00   252     3.61    287     5.0  0.36   5.0   0.088   0.000   69.5    52   51.1   68.1   9.66  .0746    0.000   211    5    100.0   10 
 1/28/20 12:50p   51.9   52.4   51.7    62   39.3  21.0   WSW   3.50  30.0   WSW   43.8   51.0   42.9   47.0  30.132  0.00  0.00   257     3.68    297     5.0  0.36   5.0   0.091   0.000   69.5    52   51.1   68.1   9.66  .0746    0.000   212    5    100.0   10 
 1/28/20  1:00p   52.0   52.1   51.9    63   39.8  16.0    SW   2.67  23.0   WSW   45.2   51.1   44.3   49.0  30.134  0.00  0.00   255     3.66    278     5.0  0.36   5.0   0.090   0.000   69.6    52   51.2   68.2   9.66  .0746    0.009   213    5    100.0   10 
 1/28/20  1:10p   51.8   51.9   51.6    63   39.6  17.0    SW   2.83  24.0    SW   44.7   50.9   43.8   48.4  30.141  0.00  0.00   255     3.66    269     5.0  0.36   5.0   0.092   0.000   69.6    52   51.2   68.2   9.66  .0746    0.000   212    5    100.0   10 
 1/28/20  1:20p   52.0   52.1   51.8    63   39.8  17.0    SW   2.83  25.0    SW   44.9   51.1   44.0   48.2  30.143  0.00  0.00   231     3.31    251     5.0  0.36   5.0   0.090   0.000   69.5    52   51.1   68.1   9.66  .0746    0.000   213    5    100.0   10 
 1/28/20  1:30p   51.6   52.1   51.6    63   39.4  19.0    SW   3.17  28.0    SW   43.9   50.8   43.1   46.1  30.141  0.00  0.00   181     2.59    190     5.0  0.36   5.0   0.093   0.000   69.5    52   51.1   68.1   9.66  .0746    0.000   214    5    100.0   10 
 1/28/20  1:40p   50.7   51.7   50.7    64   39.0  20.0    SW   3.33  30.0   SSE   42.6   50.0   41.9   44.2  30.150  0.00  0.00   149     2.14    193     5.0  0.36   5.0   0.099   0.000   69.4    52   51.0   68.0   9.66  .0746    0.000   212    5    100.0   10 
 1/28/20  1:50p   51.2   51.2   50.7    65   39.8  19.0    SW   3.17  27.0   WSW   43.4   50.5   42.7   45.7  30.154  0.00  0.00   178     2.55    197     5.0  0.36   5.0   0.096   0.000   69.4    52   51.0   68.0   9.66  .0747    0.000   211    5    100.0   10 
 1/28/20  2:00p   51.1   51.2   51.1    65   39.7  17.0    SW   2.83  26.0    SW   43.8   50.4   43.1   46.2  30.155  0.00  0.00   172     2.47    186     5.0  0.36   5.0   0.097   0.000   69.4    52   51.0   68.0   9.66  .0747    0.008   213    5    100.0   10 
 1/28/20  2:10p   51.4   51.4   51.1    65   40.0  12.0   SSW   2.00  18.0   SSE   45.9   50.7   45.2   48.9  30.158  0.00  0.00   174     2.49    181     5.0  0.36   5.0   0.094   0.000   69.3    52   50.9   68.0   9.66  .0747    0.000   211    5    100.0   10 
 1/28/20  2:20p   51.5   51.5   51.4    65   40.1  14.0    SW   2.33  20.0     S   45.3   50.8   44.6   47.3  30.166  0.00  0.00   141     2.02    178     5.0  0.36   5.0   0.094   0.000   69.3    52   50.9   68.0   9.66  .0747    0.000   212    5    100.0   10 
 1/28/20  2:30p   50.0   51.5   50.0    65   38.7  19.0   WSW   3.17  34.0   WSW   42.1   49.4   41.5   42.8  30.177  0.00  0.00   100     1.43    146     5.0  0.36   5.0   0.104   0.000   69.4    52   51.0   68.0   9.66  .0747    0.000   212    5    100.0   10 
 1/28/20  2:40p   50.4   50.4   50.0    66   39.5  14.0    SW   2.33  21.0     S   44.0   49.8   43.4   46.3  30.183  0.00  0.00   154     2.21    162     5.0  0.36   5.0   0.101   0.000   69.4    52   51.0   68.0   9.66  .0747    0.000   212    5    100.0   10 
 1/28/20  2:50p   50.8   50.8   50.4    66   39.8  13.0    SW   2.17  21.0    SW   44.8   50.2   44.2   47.0  30.185  0.00  0.00   150     2.15    162     5.0  0.36   5.0   0.099   0.000   69.4    53   51.5   68.1   9.86  .0747    0.000   212    5    100.0   10 
 1/28/20  3:00p   50.7   51.1   50.7    66   39.7  14.0    SW   2.33  21.0    SW   44.3   50.1   43.7   45.5  30.185  0.00  0.00   115     1.65    179     5.0  0.36   5.0   0.099   0.000   69.4    53   51.5   68.1   9.86  .0747    0.006   213    5    100.0   10 
 1/28/20  3:10p   51.0   51.0   50.5    65   39.6  13.0    SW   2.17  20.0    SW   45.0   50.3   44.3   47.1  30.187  0.00  0.00   158     2.26    183     5.0  0.36   5.0   0.097   0.000   69.4    53   51.5   68.1   9.86  .0747    0.000   213    5    100.0   10 
 1/28/20  3:20p   51.2   51.2   51.0    65   39.8  13.0   WSW   2.17  20.0    SW   45.2   50.5   44.5   46.3  30.190  0.00  0.00   127     1.82    135     5.0  0.36   5.0   0.096   0.000   69.3    53   51.4   68.1   9.86  .0747    0.000   211    5    100.0   10 
 1/28/20  3:30p   51.1   51.6   51.1    65   39.7  16.0   WSW   2.67  24.0    SW   44.1   50.4   43.4   42.3  30.200  0.00  0.00    98     1.40    137     5.0  0.36   5.0   0.097   0.000   69.3    53   51.4   68.1   9.86  .0748    0.000   214    5    100.0   10 
 1/28/20  3:40p   51.2   51.4   51.1    65   39.8  13.0    SW   2.17  19.0   WSW   45.2   50.5   44.5   43.5  30.206  0.00  0.00   110     1.58    114     5.0  0.36   5.0   0.096   0.000   69.3    53   51.4   68.1   9.86  .0748    0.000   209    5    100.0   10 
 1/28/20  3:50p   51.2   51.2   51.0    65   39.8  14.0   WSW   2.33  20.0   WSW   44.9   50.5   44.2   42.7  30.211  0.00  0.00    78     1.12    102     5.0  0.36   5.0   0.096   0.000   69.3    53   51.4   68.1   9.86  .0748    0.000   212    5    100.0   10 
 1/28/20  4:00p   51.3   51.3   51.2    65   39.9  13.0   WSW   2.17  18.0   WSW   45.4   50.6   44.7   43.1  30.213  0.00  0.00    72     1.03     79     5.0  0.36   5.0   0.095   0.000   69.3    53   51.4   68.1   9.86  .0748    0.005   210    5    100.0   10 
 1/28/20  4:10p   51.0   51.4   50.9    65   39.6  15.0   WSW   2.50  21.0     W   44.3   50.3   43.6   41.4  30.213  0.00  0.00    30     0.43     44     0.0  0.00   0.0   0.097   0.000   69.4    53   51.5   68.1   9.86  .0748    0.000   211    5    100.0   10 
 1/28/20  4:20p   50.1   51.1   50.1    66   39.2  15.0   WSW   2.50  23.0    SW   43.3   49.5   42.7   40.7  30.218  0.00  0.00    38     0.54     44     0.0  0.00   0.0   0.103   0.000   69.5    53   51.6   68.2   9.86  .0748    0.000   206    5     99.5   10 
 1/28/20  4:30p   50.6   50.6   50.2    66   39.7  11.0    SW   1.83  16.0   WSW   45.5   50.0   44.9   42.4  30.223  0.00  0.00    31     0.44     44     0.0  0.00   0.0   0.100   0.000   69.6    53   51.7   68.3   9.86  .0748    0.000   213    5    100.0   10 
 1/28/20  4:40p   50.7   50.7   50.4    67   40.1  13.0   WSW   2.17  20.0   WSW   44.7   50.1   44.1   41.9  30.223  0.00  0.00    36     0.52     42     0.0  0.00   0.0   0.099   0.000   69.7    53   51.8   68.3   9.86  .0748    0.000   212    5    100.0   10 
 1/28/20  4:50p   50.4   50.8   50.3    67   39.9  10.0    SW   1.67  16.0    SW   45.8   49.8   45.2   42.8  30.227  0.00  0.00    40     0.57     46     0.0  0.00   0.0   0.101   0.000   69.7    53   51.8   68.3   9.86  .0748    0.000   210    5    100.0   10 
 1/28/20  5:00p   50.4   50.7   50.4    67   39.9  11.0    SW   1.83  19.0   SSE   45.2   49.8   44.6   42.1  30.228  0.00  0.00    25     0.36     32     0.0  0.00   0.0   0.101   0.000   69.7    53   51.8   68.3   9.86  .0748    0.004   213    5    100.0   10 
 1/28/20  5:10p   50.2   50.5   50.0    66   39.3  11.0   SSW   1.83  19.0    SW   45.0   49.6   44.4   41.6  30.231  0.00  0.00    10     0.14     12     0.0  0.00   0.0   0.103   0.000   69.6    53   51.7   68.3   9.86  .0748    0.000   212    5    100.0   10 
 1/28/20  5:20p   50.3   50.4   50.1    66   39.4   9.0   SSW   1.50  13.0   SSW   46.3   49.7   45.7   42.5  30.235  0.00  0.00     4     0.06      7     0.0  0.00   0.0   0.102   0.000   69.6    53   51.7   68.3   9.86  .0748    0.000   211    5    100.0   10 
 1/28/20  5:30p   50.5   50.6   50.3    66   39.6  10.0   SSW   1.67  14.0   SSW   45.9   49.9   45.3   42.1  30.236  0.00  0.00     0     0.00      0     0.0  0.00   0.0   0.101   0.000   69.6    53   51.7   68.3   9.86  .0748    0.000   213    5    100.0   10 
 1/28/20  5:40p   50.9   50.9   50.6    66   39.9   8.0   SSW   1.33  12.0   SSW   47.6   50.3   47.0   43.6  30.240  0.00  0.00     0     0.00      0     0.0  0.00   0.0   0.098   0.000   69.5    53   51.6   68.2   9.86  .0748    0.000   213    5    100.0   10 
 1/28/20  5:50p   51.0   51.0   50.9    66   40.0   8.0   SSW   1.33  13.0    SE   47.7   50.3   47.0   43.7  30.245  0.00  0.00     0     0.00      0     0.0  0.00   0.0   0.097   0.000   69.5    53   51.6   68.2   9.86  .0748    0.000   212    5    100.0   10 
 1/28/20  6:00p   50.2   51.2   50.2    66   39.3  13.0    SW   2.17  22.0   WSW   44.1   49.6   43.5   40.6  30.252  0.00  0.00     0     0.00      0     0.0  0.00   0.0   0.103   0.000   69.5    53   51.6   68.2   9.86  .0749    0.002   212    5    100.0   10 
 1/28/20  6:10p   50.1   50.2   49.9    66   39.2  13.0   WSW   2.17  21.0   WSW   44.0   49.5   43.4   40.5  30.259  0.00  0.00     0     0.00      0     0.0  0.00   0.0   0.103   0.000   69.5    53   51.6   68.2   9.86  .0749    0.000   211    5    100.0   10 
 1/28/20  6:20p   50.3   50.4   50.1    66   39.4   8.0    SW   1.33  14.0    SW   46.9   49.7   46.3   42.9  30.260  0.00  0.00     0     0.00      0     0.0  0.00   0.0   0.102   0.000   69.5    53   51.6   68.2   9.86  .0749    0.000   211    5    100.0   10 
Email: AdamSPAM@StormwatchersRetreat.com (To send me email remove the word 'SPAM' from my email address.)